FBSP

Details ICAO FBSP (PKW)
Name SELEBI PHIKWE
Region Botswana
Timezone Africa/Gaborone (UTC+2.0)
Plans Departing 1
Arriving 1
Stats Elevation 2,925 ft / 892 m (AMSL)
Location -22.058350° 27.828765°
Runways 1
Magnetic Variation 12.742° W
Sunrise 2018-05-21 04:37:02 UTC / 2018-05-21 06:37:02 Local
Sunset 2018-05-21 15:36:21 UTC / 2018-05-21 17:36:21 Local
Advertisement - Login to hide

Runways

ID Width Length Bearing (true) Bearing (mag) Surface Threshold Offset Overrun Length
12 98 ft / 30 m 5,834 ft / 1,778 m 101.79° 114.53° Asphalt 0 ft / 0 m 125 ft / 38 m
30 98 ft / 30 m 5,834 ft / 1,778 m 281.78° 294.52° Asphalt 0 ft / 0 m 125 ft / 38 m

Map

Weather


0- 5 10 15 20 25 30 35+ Temperature / ° C

Clouds and Precipitation
Forecast for 2018-05-21 18:00 UTC. Updated 2 hours ago

Ground ~20,000 ft ~40,000 ft Winds

METAR

FBSP 211800Z 00000KT CAVOK 19/14 Q1021

TAF

Not found

Frequencies

Tower 118.70 MHz AFIS
Tower 118.70 MHz PHIKWE TWR
Tower 125.50 MHz AFIS
Warning: Do not use this data for real-world aviation or navigation. No guarantee of current accuracy is given.